Lynnville, IN (47619)

7:50 PM CDT on July 28, 2016 (GMT -0500)
The Lodge at Turtle Lake | | Change Station

Elev 523 ft 38.20 °N, 87.29 °W | Updated 2 seconds ago

Thunderstorm
Thunderstorm
79.8 °F
Feels Like 85 °F
N
0.0
Wind Variable Wind from ENE
Gusts 0.0 mph

Today
High -- | Low -- °F
--% Chance of Precip.
Yesterday
High -- | Low -- °F
Precip. -- in
Pressure 29.90 in
Visibility 10.0 miles
Clouds Few 2700 ft
Few 5500 ft
Scattered Clouds 8000 ft
Heat Index 85 °F
Dew Point 76 °F
Humidity 89%
Rainfall 0.00 in
Snow Depth Not available.
5:48 AM 8:01 PM
Waning Crescent, 27% visible
SPECI KEVV 290043Z 27003KT 10SM TS FEW027 FEW055 SCT080 27/23 A2990 RMK AO2 LTG DSNT W-N TSB37 T02720233
Pressure 29.90 in
Visibility 10.0 miles
Clouds Few 2700 ft
Few 5500 ft
Scattered Clouds 8000 ft
Heat Index 85 °F
Dew Point 76 °F
Humidity 89%
Rainfall 0.00 in
Snow Depth Not available.
5:48 AM 8:01 PM
Waning Crescent, 27% visible
SPECI KEVV 290043Z 27003KT 10SM TS FEW027 FEW055 SCT080 27/23 A2990 RMK AO2 LTG DSNT W-N TSB37 T02720233

10-Day Weather Forecast

Almanac

Astronomy

Jul. 28, 2016 Rise Set
Actual Time
Civil Twilight
Nautical Twilight
Astronomical Twilight
Moon
Length of Visible Light
Length of Day
Tomorrow will be .
, % of the Moon is Illuminated

Today's Extremes

State Highs State Lows

Community

WunderPhotos

Upload Photos

1,928,240 photos uploaded!

WunderBlog® & News

Nearby

Air Quality

  Air Quality AQ Index Pollutant
Not available.

Snow Depth

Station Depth Elevation

Earthquake Activity

City Distance Mag. Time & Date
Minimum magnitude displayed is 2.5.

Coastal Water Temperatures

Place Temperature

Stations

Nearby Weather Stations

Station Location Temp. Windchill Dew Point Humidity Wind Precip. Elev Updated Type
                   

Watches & Warnings

There are currently no watches in effect.